Time;durP1;ratioP1;P1;durP2;ratioP2;P2;SDS_P1;SDS_P2;PMS_P1;PMS_P2;Temp;Humidity;BMP_temperature;BMP_pressure;BME280_temperature;BME280_humidity;BME280_pressure;Samples;Min_cycle;Max_cycle;Signal;HPM_P1;HPM_P2
2022/04/15 00:00:41;;;;;;;10.07;9.43;;;;;;;7.35;57.26;93240.53;4990292;28;20195;-74
2022/04/15 00:03:07;;;;;;;9.93;9.13;;;;;;;7.28;57.84;93252.94;4988638;28;20255;-74
2022/04/15 00:05:45;;;;;;;10.63;9.90;;;;;;;7.18;57.63;93246.81;4990183;28;20235;-74
2022/04/15 00:08:12;;;;;;;9.17;8.47;;;;;;;7.30;56.76;93258.66;4989920;28;20310;-74
2022/04/15 00:10:46;;;;;;;8.90;8.50;;;;;;;7.19;57.23;93249.16;4990679;28;20200;-75
2022/04/15 00:13:12;;;;;;;10.87;10.17;;;;;;;7.18;57.35;93257.97;4989466;28;20227;-74
2022/04/15 00:15:39;;;;;;;8.63;8.17;;;;;;;7.18;57.44;93257.97;4990789;28;20192;-74
2022/04/15 00:18:05;;;;;;;9.70;9.20;;;;;;;7.12;57.82;93256.38;4989761;28;20223;-73
2022/04/15 00:20:31;;;;;;;12.10;8.97;;;;;;;7.25;57.18;93263.00;4989977;28;20202;-74
2022/04/15 00:22:58;;;;;;;10.03;9.43;;;;;;;7.33;56.27;93260.75;4989947;28;20318;-74
2022/04/15 00:25:24;;;;;;;9.10;8.60;;;;;;;7.27;56.51;93261.72;4990127;28;20251;-74
2022/04/15 00:27:49;;;;;;;10.47;9.87;;;;;;;7.27;56.32;93259.13;4989326;28;20222;-74
2022/04/15 00:30:14;;;;;;;9.70;9.17;;;;;;;7.19;57.41;93263.97;4971255;28;20211;-74
2022/04/15 00:32:41;;;;;;;9.77;9.27;;;;;;;6.93;58.20;93242.09;4970325;29;20220;-74
2022/04/15 00:35:07;;;;;;;10.23;9.73;;;;;;;7.00;58.50;93263.47;4989284;28;20231;-75
2022/04/15 00:37:33;;;;;;;9.47;8.97;;;;;;;7.00;57.92;93255.69;4990020;28;20235;-74
2022/04/15 00:40:02;;;;;;;9.00;8.63;;;;;;;6.92;58.05;93260.50;4989749;28;20248;-74
2022/04/15 00:42:28;;;;;;;9.83;9.33;;;;;;;6.77;58.44;93248.09;4990369;28;20192;-74
2022/04/15 00:44:55;;;;;;;9.97;9.27;;;;;;;6.97;58.21;93258.78;4989386;28;20336;-74
2022/04/15 00:47:32;;;;;;;11.00;10.37;;;;;;;6.94;58.81;93259.22;4987242;28;20184;-74
2022/04/15 00:49:57;;;;;;;10.50;9.87;;;;;;;6.89;58.87;93248.81;4988258;28;20232;-74
2022/04/15 00:52:29;;;;;;;9.67;9.17;;;;;;;6.86;59.33;93256.28;4989788;28;20240;-75
2022/04/15 00:54:56;;;;;;;10.03;9.50;;;;;;;6.66;59.47;93240.44;4989089;28;20231;-74
2022/04/15 00:57:23;;;;;;;10.20;9.53;;;;;;;6.65;59.47;93247.44;4989429;28;20226;-73
2022/04/15 00:59:51;;;;;;;11.27;10.43;;;;;;;6.72;59.96;93258.44;4988239;28;20238;-74
2022/04/15 01:02:17;;;;;;;11.17;10.57;;;;;;;6.70;59.47;93264.88;4988087;28;20195;-74
2022/04/15 01:04:44;;;;;;;11.27;10.27;;;;;;;6.69;59.17;93261.50;4988221;28;20236;-74
2022/04/15 01:07:12;;;;;;;9.40;9.00;;;;;;;6.56;58.39;93256.66;4989355;28;20188;-74
2022/04/15 01:09:42;;;;;;;9.67;9.03;;;;;;;6.74;58.98;93266.75;4988334;28;20228;-74
2022/04/15 01:12:09;;;;;;;9.67;9.17;;;;;;;6.66;59.51;93264.59;4989233;28;20252;-74
2022/04/15 01:14:38;;;;;;;11.37;10.67;;;;;;;6.58;59.02;93273.53;4988462;28;20246;-74
2022/04/15 01:17:03;;;;;;;9.90;9.27;;;;;;;6.54;59.38;93266.47;4989290;28;20187;-74
2022/04/15 01:19:29;;;;;;;10.47;9.97;;;;;;;6.55;59.61;93248.06;4989240;28;20246;-74
2022/04/15 01:21:56;;;;;;;10.20;9.70;;;;;;;6.66;59.63;93256.81;4989564;28;20227;-75
2022/04/15 01:24:23;;;;;;;9.30;8.77;;;;;;;6.61;59.71;93261.91;4988930;28;20256;-73
2022/04/15 01:26:49;;;;;;;9.80;9.30;;;;;;;6.34;60.57;93237.63;4989271;28;20196;-74
2022/04/15 01:29:15;;;;;;;8.83;8.43;;;;;;;6.45;60.12;93265.31;4988898;28;21599;-74
2022/04/15 01:31:40;;;;;;;9.47;9.03;;;;;;;6.49;60.11;93263.78;4989147;28;20172;-74
2022/04/15 01:34:06;;;;;;;9.23;8.73;;;;;;;6.62;59.77;93255.69;4989128;28;20250;-74
2022/04/15 01:36:31;;;;;;;10.33;9.83;;;;;;;6.38;60.60;93233.56;4989466;28;20208;-74
2022/04/15 01:38:58;;;;;;;10.97;10.27;;;;;;;6.44;60.64;93255.97;4989016;28;20220;-74
2022/04/15 01:41:24;;;;;;;10.43;9.83;;;;;;;6.42;61.07;93252.81;4988400;28;20188;-74
2022/04/15 01:43:49;;;;;;;9.63;9.10;;;;;;;6.38;60.94;93241.34;4989576;28;20220;-74
2022/04/15 01:46:15;;;;;;;9.10;8.47;;;;;;;6.36;60.74;93239.00;4990053;28;20235;-74
2022/04/15 01:48:40;;;;;;;9.63;9.03;;;;;;;6.32;60.96;93231.91;4989693;28;20263;-74
2022/04/15 01:51:06;;;;;;;10.63;10.07;;;;;;;6.29;60.68;93233.16;4990429;28;20188;-74
2022/04/15 01:53:31;;;;;;;9.50;9.10;;;;;;;6.33;60.78;93223.88;4989189;28;20243;-74
2022/04/15 01:55:57;;;;;;;9.93;9.23;;;;;;;6.36;60.63;93207.88;4989756;28;20228;-74
2022/04/15 01:58:22;;;;;;;9.40;9.03;;;;;;;6.48;60.59;93223.31;4988877;28;20242;-74
2022/04/15 02:00:48;;;;;;;9.63;9.13;;;;;;;6.51;60.21;93225.44;4989929;28;20192;-74
2022/04/15 02:03:13;;;;;;;9.77;9.37;;;;;;;6.50;60.63;93239.44;4989851;28;20226;-74
2022/04/15 02:05:39;;;;;;;9.17;8.77;;;;;;;6.57;60.26;93224.47;4989936;28;20211;-74
2022/04/15 02:08:04;;;;;;;9.33;8.93;;;;;;;6.57;60.49;93223.72;4989105;28;20192;-74
2022/04/15 02:10:30;;;;;;;10.03;9.50;;;;;;;6.47;61.52;93214.00;4989540;28;20187;-74
2022/04/15 02:12:56;;;;;;;8.87;8.40;;;;;;;6.55;61.28;93216.19;4989664;28;20216;-74
2022/04/15 02:15:21;;;;;;;9.03;8.57;;;;;;;6.28;62.91;93217.84;4990922;28;20590;-74
2022/04/15 02:17:46;;;;;;;8.73;8.43;;;;;;;6.34;62.32;93224.69;4993147;28;20651;-73
2022/04/15 02:20:12;;;;;;;9.73;9.13;;;;;;;6.34;61.65;93217.69;4993450;28;20689;-74
2022/04/15 02:22:37;;;;;;;9.37;8.97;;;;;;;6.43;60.46;93213.66;4993324;28;20248;-74
2022/04/15 02:25:04;;;;;;;9.70;9.20;;;;;;;6.41;61.09;93214.94;4993566;28;20326;-74
2022/04/15 02:27:29;;;;;;;9.17;8.70;;;;;;;6.40;61.06;93213.34;4992876;28;20188;-74
2022/04/15 02:29:55;;;;;;;11.17;10.33;;;;;;;6.43;60.79;93218.84;4992766;28;20225;-74
2022/04/15 02:32:20;;;;;;;9.80;9.20;;;;;;;6.50;60.27;93218.69;4991990;28;20200;-74
2022/04/15 02:34:46;;;;;;;9.43;8.93;;;;;;;6.37;61.41;93219.00;4992731;28;20236;-74
2022/04/15 02:37:12;;;;;;;10.03;9.53;;;;;;;6.38;61.54;93220.59;4992588;28;20184;-74
2022/04/15 02:39:38;;;;;;;8.77;8.20;;;;;;;6.36;61.45;93217.47;4992655;28;20235;-74
2022/04/15 02:42:03;;;;;;;10.03;9.47;;;;;;;6.26;61.10;93194.75;4992311;28;20181;-74
2022/04/15 02:44:30;;;;;;;9.33;8.93;;;;;;;6.18;62.12;93209.91;4992505;28;20235;-74
2022/04/15 02:46:58;;;;;;;8.80;8.40;;;;;;;6.19;62.07;93221.88;4990368;28;20196;-74
2022/04/15 02:49:26;;;;;;;9.57;9.17;;;;;;;6.08;62.28;93209.78;4991286;28;20235;-75
2022/04/15 02:51:51;;;;;;;9.63;8.90;;;;;;;6.16;62.56;93212.75;4993615;28;20271;-74
2022/04/15 02:54:17;;;;;;;9.80;9.20;;;;;;;6.24;61.68;93216.78;4991389;28;20232;-74
2022/04/15 02:56:42;;;;;;;9.77;9.17;;;;;;;6.27;61.70;93211.88;4992279;28;20200;-74
2022/04/15 02:59:07;;;;;;;8.80;8.33;;;;;;;6.20;62.42;93226.03;4991865;28;20228;-74
2022/04/15 03:01:33;;;;;;;9.90;9.33;;;;;;;6.08;62.79;93223.53;4992618;28;20192;-74
2022/04/15 03:03:59;;;;;;;9.20;8.73;;;;;;;6.09;62.66;93226.88;4992135;28;20227;-74
2022/04/15 03:06:24;;;;;;;9.97;9.53;;;;;;;6.08;62.23;93207.19;4992374;28;20203;-74
2022/04/15 03:08:49;;;;;;;10.20;9.40;;;;;;;6.06;63.28;93222.97;4992259;28;20235;-74
2022/04/15 03:11:15;;;;;;;10.73;10.07;;;;;;;6.14;63.04;93224.38;4992460;28;20184;-73
2022/04/15 03:13:40;;;;;;;9.93;9.43;;;;;;;6.07;62.85;93219.34;4991223;28;20238;-74
2022/04/15 03:16:06;;;;;;;11.40;10.70;;;;;;;5.88;64.12;93217.22;4991998;28;20204;-74
2022/04/15 03:18:31;;;;;;;9.13;8.73;;;;;;;5.88;64.45;93219.81;4991921;28;20220;-74
2022/04/15 03:20:57;;;;;;;9.53;9.07;;;;;;;5.93;64.34;93217.31;4992219;28;20216;-74
2022/04/15 03:23:22;;;;;;;9.73;9.23;;;;;;;6.00;63.87;93215.34;4991655;28;21003;-74
2022/04/15 03:25:48;;;;;;;9.90;9.50;;;;;;;5.97;64.11;93221.78;4991248;28;20310;-74
2022/04/15 03:28:15;;;;;;;11.40;9.93;;;;;;;5.92;63.71;93218.31;4990495;28;20346;-74
2022/04/15 03:30:40;;;;;;;9.90;9.30;;;;;;;5.80;64.23;93220.97;4992179;28;20198;-74
2022/04/15 03:33:06;;;;;;;9.50;8.87;;;;;;;5.81;64.24;93219.94;4991126;28;20239;-74
2022/04/15 03:35:31;;;;;;;10.20;9.37;;;;;;;5.77;64.82;93225.81;4990809;28;20184;-74
2022/04/15 03:37:57;;;;;;;9.07;8.57;;;;;;;5.77;64.59;93218.06;4991118;28;20207;-73
2022/04/15 03:40:22;;;;;;;9.97;9.37;;;;;;;5.79;64.71;93224.56;4991087;28;20192;-73
2022/04/15 03:42:56;;;;;;;10.37;9.67;;;;;;;5.72;65.23;93228.31;4990503;28;20191;-74
2022/04/15 03:45:22;;;;;;;10.37;9.87;;;;;;;5.66;65.92;93229.25;4991007;28;20223;-74
2022/04/15 03:47:48;;;;;;;11.30;10.60;;;;;;;5.75;65.32;93233.84;4990921;28;20219;-74
2022/04/15 03:50:14;;;;;;;10.17;9.47;;;;;;;5.76;63.92;93240.56;4990703;28;20192;-74
2022/04/15 03:52:44;;;;;;;10.97;10.27;;;;;;;5.66;64.42;93226.66;4989020;28;20194;-85
2022/04/15 03:55:14;;;;;;;9.80;9.40;;;;;;;5.84;64.38;93229.06;4990089;28;20223;-78
2022/04/15 03:57:39;;;;;;;9.87;9.37;;;;;;;5.92;63.44;93234.66;4989841;28;20192;-81
2022/04/15 04:00:10;;;;;;;9.57;8.90;;;;;;;5.83;64.20;93238.66;4990041;28;20239;-81
2022/04/15 04:02:36;;;;;;;11.63;10.53;;;;;;;5.99;63.55;93237.09;4989477;28;20204;-83
2022/04/15 04:05:01;;;;;;;9.07;8.67;;;;;;;6.00;63.97;93243.84;4990131;28;20262;-81
2022/04/15 04:07:27;;;;;;;9.93;9.43;;;;;;;6.17;63.29;93252.41;4989356;28;20197;-80
2022/04/15 04:09:52;;;;;;;11.03;10.40;;;;;;;6.16;62.93;93224.94;4988704;28;20298;-77
2022/04/15 04:12:18;;;;;;;10.37;9.73;;;;;;;6.36;62.82;93248.56;4989770;28;20213;-77
2022/04/15 04:14:43;;;;;;;10.47;9.83;;;;;;;6.39;62.55;93217.78;4990290;28;20224;-77
2022/04/15 04:17:09;;;;;;;8.07;7.67;;;;;;;6.52;62.71;93250.38;4991480;28;20195;-73
2022/04/15 04:19:34;;;;;;;10.60;9.70;;;;;;;6.61;62.52;93243.75;4990224;28;20235;-80
2022/04/15 04:22:00;;;;;;;10.03;9.30;;;;;;;6.69;62.47;93243.34;4990222;28;20235;-78
2022/04/15 04:24:25;;;;;;;10.07;9.47;;;;;;;6.71;62.96;93238.69;4989247;28;20274;-80
2022/04/15 04:26:50;;;;;;;10.03;9.53;;;;;;;6.70;63.09;93238.94;4990250;28;20206;-74
2022/04/15 04:29:16;;;;;;;9.13;8.67;;;;;;;6.91;62.00;93233.00;4988985;28;20238;-75
2022/04/15 04:31:42;;;;;;;9.30;8.90;;;;;;;7.07;62.12;93253.69;4990030;28;20253;-84
2022/04/15 04:34:07;;;;;;;11.20;10.53;;;;;;;7.17;61.81;93258.22;4989328;28;20242;-80
2022/04/15 04:36:33;;;;;;;10.60;9.73;;;;;;;7.31;63.89;93241.25;4990557;28;20205;-79
2022/04/15 04:38:58;;;;;;;10.73;10.23;;;;;;;7.41;61.50;93246.59;4979926;28;20248;-83
2022/04/15 04:41:23;;;;;;;10.73;10.13;;;;;;;7.54;60.85;93241.78;4970948;28;20181;-83
2022/04/15 04:43:50;;;;;;;10.20;9.53;;;;;;;7.74;60.15;93256.78;4975445;28;20295;-81
2022/04/15 04:46:15;;;;;;;9.70;9.30;;;;;;;7.88;58.81;93263.94;4989517;28;20184;-82
2022/04/15 04:48:41;;;;;;;9.70;9.07;;;;;;;8.01;58.22;93263.56;4988380;28;20247;-83
2022/04/15 04:51:06;;;;;;;9.47;8.97;;;;;;;8.23;57.47;93260.91;4991670;28;20266;-81
2022/04/15 04:53:32;;;;;;;9.43;8.93;;;;;;;8.43;57.78;93262.88;4991269;28;20264;-87
2022/04/15 04:55:57;;;;;;;10.83;10.13;;;;;;;8.58;57.90;93274.19;4988888;28;20191;-78
2022/04/15 04:58:23;;;;;;;11.07;10.37;;;;;;;8.61;57.44;93265.09;4988942;28;20235;-91
2022/04/15 05:00:48;;;;;;;10.37;9.77;;;;;;;8.83;56.86;93266.53;4986377;28;20184;-86
2022/04/15 05:03:14;;;;;;;8.90;8.50;;;;;;;8.99;56.20;93268.22;4988614;28;20311;-84
2022/04/15 05:05:39;;;;;;;10.30;9.50;;;;;;;9.10;56.33;93261.22;4988815;28;21056;-90
2022/04/15 05:08:05;;;;;;;10.07;9.47;;;;;;;9.40;55.82;93267.34;4988609;28;20184;-89
2022/04/15 05:10:32;;;;;;;11.20;10.10;;;;;;;9.44;53.87;93242.38;4989379;28;20215;-83
2022/04/15 05:12:59;;;;;;;10.27;9.47;;;;;;;9.48;51.91;93225.16;4990658;28;20250;-83
2022/04/15 05:15:24;;;;;;;10.43;9.63;;;;;;;10.09;51.31;93267.03;4990250;28;20187;-78
2022/04/15 05:17:50;;;;;;;10.60;9.67;;;;;;;10.01;52.38;93237.00;4989773;28;20216;-77
2022/04/15 05:20:15;;;;;;;10.00;9.40;;;;;;;10.30;51.17;93273.84;4989307;28;20192;-77
2022/04/15 05:22:41;;;;;;;9.17;8.67;;;;;;;10.62;47.86;93269.16;4990209;28;20246;-77
2022/04/15 05:25:07;;;;;;;9.63;9.03;;;;;;;10.53;49.50;93281.97;4989475;28;20231;-77
2022/04/15 05:27:32;;;;;;;9.93;9.33;;;;;;;10.81;48.47;93278.81;4989761;28;20246;-75
2022/04/15 05:29:58;;;;;;;10.03;9.10;;;;;;;10.87;48.21;93283.00;4988801;28;20223;-75
2022/04/15 05:32:23;;;;;;;11.43;10.60;;;;;;;10.79;48.47;93257.41;4990020;28;20196;-74
2022/04/15 05:34:49;;;;;;;11.20;10.50;;;;;;;10.70;48.45;93258.19;4989270;28;20227;-76
2022/04/15 05:37:14;;;;;;;10.23;9.63;;;;;;;10.83;47.71;93276.72;4990328;28;20193;-73
2022/04/15 05:39:40;;;;;;;10.73;9.93;;;;;;;10.96;47.42;93265.72;4988708;28;20256;-74
2022/04/15 05:42:05;;;;;;;10.77;10.13;;;;;;;11.32;47.48;93274.25;4989801;28;20188;-73
2022/04/15 05:44:31;;;;;;;10.67;9.87;;;;;;;11.35;47.83;93274.50;4989413;28;20232;-76
2022/04/15 05:46:56;;;;;;;10.17;9.50;;;;;;;11.60;47.49;93272.84;4990011;28;20200;-75
2022/04/15 05:49:23;;;;;;;12.40;11.20;;;;;;;11.72;48.30;93275.97;4990964;28;20216;-74
2022/04/15 05:51:49;;;;;;;12.00;11.13;;;;;;;11.01;50.60;93278.00;4993577;28;20256;-75
2022/04/15 05:54:14;;;;;;;11.70;10.83;;;;;;;11.28;51.20;93274.00;4992961;28;20235;-73
2022/04/15 05:56:40;;;;;;;11.67;10.87;;;;;;;12.14;47.96;93257.97;4993693;28;20301;-75
2022/04/15 05:59:06;;;;;;;12.33;11.33;;;;;;;14.54;42.78;93280.09;4993178;28;20236;-74
2022/04/15 06:01:32;;;;;;;13.17;12.07;;;;;;;16.98;36.97;93268.41;4993283;28;20204;-75
2022/04/15 06:03:57;;;;;;;11.50;10.53;;;;;;;18.91;33.11;93282.06;4992670;28;20235;-75
2022/04/15 06:06:23;;;;;;;13.23;12.23;;;;;;;18.54;33.19;93275.53;4993252;28;20196;-75
2022/04/15 06:08:48;;;;;;;14.03;12.70;;;;;;;15.66;38.29;93279.47;4993120;28;20231;-75
2022/04/15 06:11:14;;;;;;;14.27;12.97;;;;;;;14.35;41.65;93272.19;4993201;28;20192;-74
2022/04/15 06:13:42;;;;;;;12.30;11.13;;;;;;;12.99;45.09;93267.75;4993045;28;20320;-75
2022/04/15 06:16:09;;;;;;;15.87;11.60;;;;;;;12.46;47.40;93273.97;4993221;28;20211;-74
2022/04/15 06:18:36;;;;;;;13.03;11.47;;;;;;;12.82;45.10;93272.63;4992362;28;20220;-75
2022/04/15 06:21:03;;;;;;;14.50;12.93;;;;;;;11.45;48.77;93270.28;4993178;28;20204;-75
2022/04/15 06:23:29;;;;;;;13.27;12.20;;;;;;;11.98;47.24;93238.94;4992385;28;20215;-75
2022/04/15 06:25:54;;;;;;;14.10;12.80;;;;;;;11.97;48.63;93276.63;4993114;28;20268;-75
2022/04/15 06:28:23;;;;;;;12.80;11.77;;;;;;;12.24;47.62;93282.22;4992365;28;20238;-74
2022/04/15 06:30:49;;;;;;;16.07;12.10;;;;;;;12.49;46.52;93282.06;4993198;28;20192;-75
2022/04/15 06:33:16;;;;;;;14.13;11.67;;;;;;;12.57;45.91;93283.31;4992436;28;20566;-75
2022/04/15 06:35:42;;;;;;;13.27;11.83;;;;;;;12.49;46.32;93283.88;4992577;28;20196;-75
2022/04/15 06:38:07;;;;;;;12.27;11.20;;;;;;;12.06;47.12;93267.13;4991982;28;20226;-75
2022/04/15 06:40:34;;;;;;;13.90;12.63;;;;;;;12.33;46.60;93279.81;4992498;28;20186;-75
2022/04/15 06:42:59;;;;;;;11.90;10.97;;;;;;;11.99;47.44;93268.50;4991810;28;20189;-75
2022/04/15 06:45:25;;;;;;;12.67;11.60;;;;;;;12.14;46.58;93260.56;4992018;28;20788;-74
2022/04/15 06:47:51;;;;;;;13.07;12.10;;;;;;;11.93;46.75;93269.59;4992120;28;20256;-75
2022/04/15 06:50:16;;;;;;;12.23;11.30;;;;;;;12.15;46.27;93280.44;4992535;28;20207;-75
2022/04/15 06:52:42;;;;;;;11.90;10.97;;;;;;;12.52;45.76;93278.09;4992689;28;20203;-75
2022/04/15 06:55:08;;;;;;;12.13;10.87;;;;;;;12.74;45.41;93271.38;4992217;28;20226;-75
2022/04/15 06:57:33;;;;;;;11.57;10.77;;;;;;;12.80;44.40;93274.72;4991863;28;20252;-75
2022/04/15 06:59:59;;;;;;;11.80;10.97;;;;;;;12.77;44.61;93275.28;4991990;28;20228;-75
2022/04/15 07:02:27;;;;;;;13.70;12.60;;;;;;;12.70;45.25;93277.44;4991271;28;20196;-76
2022/04/15 07:04:53;;;;;;;12.60;11.53;;;;;;;13.02;43.45;93267.22;4991874;28;20229;-74
2022/04/15 07:07:18;;;;;;;12.63;11.53;;;;;;;13.13;43.26;93266.06;4991373;28;20226;-74
2022/04/15 07:09:49;;;;;;;11.93;11.07;;;;;;;12.66;43.94;93268.56;4991893;28;20232;-75
2022/04/15 07:12:16;;;;;;;12.40;11.33;;;;;;;13.32;43.44;93268.75;4991747;28;20219;-75
2022/04/15 07:14:41;;;;;;;11.47;10.67;;;;;;;13.30;41.77;93271.66;4991595;28;20236;-73
2022/04/15 07:17:07;;;;;;;12.60;11.43;;;;;;;13.27;43.64;93266.97;4992302;28;20184;-73
2022/04/15 07:19:32;;;;;;;13.17;11.77;;;;;;;13.63;41.65;93268.16;4991507;28;20292;-74
2022/04/15 07:21:58;;;;;;;11.20;10.40;;;;;;;13.84;40.40;93269.44;4991751;28;20231;-75
2022/04/15 07:24:23;;;;;;;11.57;10.77;;;;;;;13.45;40.45;93234.00;4991602;28;20230;-75
2022/04/15 07:26:49;;;;;;;11.70;10.80;;;;;;;13.63;39.48;93273.41;4991466;28;20196;-75
2022/04/15 07:29:14;;;;;;;11.87;10.87;;;;;;;13.70;40.73;93271.19;4990718;28;20259;-75
2022/04/15 07:31:42;;;;;;;11.27;10.30;;;;;;;13.66;39.92;93264.97;4993084;28;20187;-75
2022/04/15 07:34:07;;;;;;;10.53;9.63;;;;;;;13.62;42.46;93263.94;4991516;28;20782;-75
2022/04/15 07:39:04;;;;;;;10.33;9.47;;;;;;;13.92;40.75;93265.41;4990670;28;20246;-75
2022/04/15 07:41:30;;;;;;;11.23;9.90;;;;;;;14.04;40.57;93263.16;4991660;28;20208;-75
2022/04/15 07:43:55;;;;;;;10.77;9.87;;;;;;;14.10;40.20;93262.03;4991000;28;20255;-75
2022/04/15 07:46:21;;;;;;;11.70;10.57;;;;;;;14.11;39.36;93263.59;4990646;28;20199;-75
2022/04/15 07:48:46;;;;;;;10.90;10.23;;;;;;;14.39;38.51;93239.84;4990744;28;20236;-74
2022/04/15 07:51:12;;;;;;;10.77;9.73;;;;;;;13.90;39.29;93247.31;4991378;28;20206;-75
2022/04/15 07:53:37;;;;;;;10.07;9.37;;;;;;;14.29;38.39;93265.44;4990800;28;20224;-76
2022/04/15 07:56:03;;;;;;;9.63;8.83;;;;;;;14.42;38.57;93259.50;4991664;28;20202;-74
2022/04/15 07:58:29;;;;;;;10.63;9.93;;;;;;;13.86;38.31;93262.09;4990372;28;20224;-75
2022/04/15 08:00:54;;;;;;;10.00;9.50;;;;;;;14.28;38.03;93238.44;4991312;28;20232;-75
2022/04/15 08:03:21;;;;;;;10.70;10.10;;;;;;;14.25;37.28;93264.47;4990792;28;20235;-73
2022/04/15 08:05:47;;;;;;;10.40;9.60;;;;;;;14.46;36.41;93252.59;4990941;28;20216;-75
2022/04/15 08:08:13;;;;;;;8.57;8.07;;;;;;;14.60;35.76;93239.53;4989986;28;20224;-75
2022/04/15 08:10:38;;;;;;;9.10;8.67;;;;;;;14.69;36.25;93261.44;4990977;28;20188;-75
2022/04/15 08:13:04;;;;;;;9.93;9.33;;;;;;;14.84;36.22;93253.31;4990555;28;20208;-73
2022/04/15 08:15:29;;;;;;;9.77;9.07;;;;;;;14.98;36.67;93259.38;4991003;28;20263;-75
2022/04/15 08:17:55;;;;;;;10.10;9.13;;;;;;;14.29;36.07;93247.84;4990521;28;20191;-76
2022/04/15 08:20:20;;;;;;;10.13;9.43;;;;;;;14.72;37.62;93260.88;4991408;28;20188;-76
2022/04/15 08:22:46;;;;;;;8.80;8.10;;;;;;;15.07;36.41;93249.75;4989668;28;20256;-75
2022/04/15 08:25:11;;;;;;;10.17;9.40;;;;;;;15.05;35.04;93251.91;4990215;28;20332;-75
2022/04/15 08:27:36;;;;;;;9.40;8.80;;;;;;;15.11;36.13;93253.38;4990977;28;20195;-75
2022/04/15 08:30:03;;;;;;;9.97;9.40;;;;;;;15.26;34.42;93248.63;4990587;28;20228;-76
2022/04/15 08:32:33;;;;;;;9.73;9.17;;;;;;;15.09;35.51;93245.78;4990695;28;20211;-75
2022/04/15 08:35:03;;;;;;;8.57;8.17;;;;;;;15.37;34.88;93246.59;4989765;28;20242;-76
2022/04/15 08:37:28;;;;;;;9.97;9.07;;;;;;;15.34;34.08;93205.06;4990020;28;20192;-74
2022/04/15 08:39:54;;;;;;;10.27;9.13;;;;;;;15.53;34.31;93245.25;4989864;28;20231;-75
2022/04/15 08:42:22;;;;;;;8.83;8.43;;;;;;;15.60;32.77;93243.00;4989875;28;20190;-74
2022/04/15 08:44:51;;;;;;;8.20;7.67;;;;;;;15.33;32.60;93222.69;4989178;28;20246;-75
2022/04/15 08:47:17;;;;;;;8.23;7.70;;;;;;;15.69;33.61;93238.59;4990487;28;20196;-73
2022/04/15 08:49:43;;;;;;;9.47;8.97;;;;;;;15.77;34.10;93216.84;4989671;28;20220;-74
2022/04/15 08:52:10;;;;;;;8.77;8.20;;;;;;;15.51;36.69;93229.75;4989923;28;20195;-75
2022/04/15 08:54:36;;;;;;;9.13;8.63;;;;;;;15.87;32.86;93227.97;4988932;28;20247;-75
2022/04/15 08:57:03;;;;;;;9.03;8.43;;;;;;;15.87;32.35;93196.38;4990323;28;20203;-75
2022/04/15 08:59:28;;;;;;;9.87;9.17;;;;;;;15.86;32.16;93222.97;4989174;28;20248;-73
2022/04/15 09:01:54;;;;;;;9.47;8.90;;;;;;;15.86;32.88;93225.63;4990099;28;20203;-75
2022/04/15 09:04:20;;;;;;;9.20;8.60;;;;;;;16.00;34.14;93227.16;4989529;28;20244;-75
2022/04/15 09:06:45;;;;;;;9.20;8.70;;;;;;;15.73;34.03;93200.91;4990157;28;20192;-75
2022/04/15 09:09:12;;;;;;;9.47;8.77;;;;;;;16.14;34.53;93218.44;4989282;28;20216;-75
2022/04/15 09:11:40;;;;;;;11.97;9.50;;;;;;;16.44;33.63;93215.94;4989659;28;20244;-75
2022/04/15 09:14:10;;;;;;;9.87;9.10;;;;;;;16.24;34.04;93205.03;4989651;28;20232;-76
2022/04/15 09:16:41;;;;;;;8.47;7.83;;;;;;;16.37;34.08;93199.75;4990307;28;20239;-75
2022/04/15 09:19:08;;;;;;;9.00;8.13;;;;;;;16.35;33.42;93193.19;4988373;28;20236;-75
2022/04/15 09:21:35;;;;;;;9.77;8.97;;;;;;;16.56;34.22;93186.41;4989781;28;20242;-76
2022/04/15 09:24:00;;;;;;;9.17;8.30;;;;;;;16.67;32.84;93193.75;4990511;28;20232;-75
2022/04/15 09:26:26;;;;;;;10.60;9.87;;;;;;;16.59;33.13;93191.84;4993921;28;20260;-75
2022/04/15 09:28:53;;;;;;;10.13;9.43;;;;;;;16.45;33.06;93169.28;4993600;28;20238;-75
2022/04/15 09:31:20;;;;;;;10.83;10.03;;;;;;;16.58;32.67;93185.00;4994822;28;20228;-75
2022/04/15 09:33:55;;;;;;;8.53;8.03;;;;;;;16.68;32.36;93184.00;4992346;28;20236;-75
2022/04/15 09:36:26;;;;;;;9.67;8.87;;;;;;;16.59;32.76;93181.28;4993114;28;20701;-75
2022/04/15 09:39:16;;;;;;;8.40;7.70;;;;;;;16.52;33.18;93172.25;4992396;28;20240;-75
2022/04/15 09:41:56;;;;;;;9.87;9.27;;;;;;;16.80;31.75;93171.03;4993355;28;20218;-73
2022/04/15 09:44:22;;;;;;;9.13;8.43;;;;;;;16.74;32.31;93167.75;4992388;28;20251;-76
2022/04/15 09:46:51;;;;;;;8.93;8.43;;;;;;;16.83;32.49;93165.16;4993673;28;20196;-74
2022/04/15 09:49:17;;;;;;;9.40;8.80;;;;;;;16.47;32.22;93127.59;4992533;28;20230;-74
2022/04/15 09:51:44;;;;;;;9.10;8.53;;;;;;;16.87;32.99;93160.84;4994198;28;20208;-76
2022/04/15 09:54:20;;;;;;;7.97;7.57;;;;;;;17.11;32.47;93155.97;4993482;28;20234;-75
2022/04/15 09:56:47;;;;;;;8.83;8.30;;;;;;;17.28;31.63;93145.47;4993861;28;20196;-75
2022/04/15 09:59:15;;;;;;;9.73;9.03;;;;;;;17.09;31.89;93143.06;4993252;28;20246;-74
2022/04/15 10:01:45;;;;;;;8.93;8.43;;;;;;;16.92;31.39;93136.94;4992703;28;20200;-75
2022/04/15 10:04:12;;;;;;;8.53;8.13;;;;;;;17.30;31.38;93133.53;4993041;28;20232;-75
2022/04/15 10:06:40;;;;;;;8.57;8.07;;;;;;;17.49;30.63;93130.66;4993308;28;20212;-76
2022/04/15 10:09:10;;;;;;;9.73;9.13;;;;;;;17.56;31.15;93121.19;4992964;28;20232;-76
2022/04/15 10:11:35;;;;;;;9.33;8.63;;;;;;;17.75;30.69;93117.47;4993373;28;20200;-75
2022/04/15 10:14:02;;;;;;;9.30;8.70;;;;;;;17.91;30.42;93119.38;4992862;28;20246;-75
2022/04/15 10:16:30;;;;;;;8.20;7.73;;;;;;;17.88;28.42;93116.56;4993024;28;20219;-75
2022/04/15 10:18:59;;;;;;;9.80;9.13;;;;;;;17.63;29.23;93119.97;4992617;28;20228;-76
2022/04/15 10:21:25;;;;;;;9.80;9.20;;;;;;;17.34;29.47;93118.63;4992161;28;20232;-76
2022/04/15 10:23:51;;;;;;;10.23;9.43;;;;;;;17.26;30.88;93123.91;4992117;28;20247;-76
2022/04/15 10:26:20;;;;;;;9.53;8.73;;;;;;;17.08;31.32;93082.69;4992501;28;20214;-75
2022/04/15 10:28:47;;;;;;;9.37;8.57;;;;;;;17.68;30.37;93107.41;4992125;28;20288;-76
2022/04/15 10:31:17;;;;;;;9.93;9.27;;;;;;;18.03;30.18;93108.97;4992873;28;20215;-75
2022/04/15 10:33:44;;;;;;;9.30;8.80;;;;;;;18.14;29.70;93094.34;4992586;28;20224;-76
2022/04/15 10:36:24;;;;;;;9.20;8.70;;;;;;;18.23;29.88;93081.88;4991072;28;20204;-74
2022/04/15 10:39:06;;;;;;;9.53;8.90;;;;;;;18.13;30.07;93099.94;4992201;28;20287;-74
2022/04/15 10:41:41;;;;;;;10.00;9.40;;;;;;;18.37;29.51;93094.91;4992321;28;20183;-76
2022/04/15 10:44:07;;;;;;;9.63;8.67;;;;;;;18.38;30.74;93097.28;4991135;28;20246;-76
2022/04/15 10:46:36;;;;;;;10.40;9.70;;;;;;;18.51;29.76;93083.09;4991179;28;21557;-75
2022/04/15 10:49:18;;;;;;;9.77;9.17;;;;;;;18.76;28.80;93084.91;4991769;28;20870;-76
2022/04/15 10:51:44;;;;;;;9.30;8.70;;;;;;;18.88;29.25;93086.88;4992534;28;20193;-76
2022/04/15 10:54:29;;;;;;;9.50;9.00;;;;;;;18.75;29.37;93088.66;4992040;28;20296;-75
2022/04/15 10:57:15;;;;;;;9.60;8.80;;;;;;;18.69;28.45;93086.50;4992219;28;20253;-75
2022/04/15 11:02:51;;;;;;;9.93;8.93;;;;;;;18.20;29.09;93082.50;4913255;29;20229;-76
2022/04/15 11:05:46;;;;;;;9.30;8.80;;;;;;;17.99;29.79;93060.47;4980136;28;20295;-76
2022/04/15 11:08:13;;;;;;;9.03;8.53;;;;;;;18.20;29.27;93074.59;4982686;28;20239;-75
2022/04/15 11:10:55;;;;;;;9.60;8.60;;;;;;;18.26;29.25;93073.31;4991945;28;20192;-74
2022/04/15 11:13:33;;;;;;;9.47;8.57;;;;;;;18.34;31.08;93066.47;4991467;28;20246;-76
2022/04/15 11:16:06;;;;;;;9.37;8.77;;;;;;;18.48;28.60;93067.09;4991632;28;20191;-75
2022/04/15 11:18:59;;;;;;;8.57;8.07;;;;;;;18.75;28.77;93064.84;4991571;28;20288;-75
2022/04/15 11:21:32;;;;;;;9.13;8.53;;;;;;;19.15;28.58;93065.28;4993981;28;20224;-75
2022/04/15 11:24:02;;;;;;;8.53;7.93;;;;;;;19.07;27.93;93052.84;4991437;28;20229;-76
2022/04/15 11:26:28;;;;;;;9.70;9.10;;;;;;;19.00;27.49;93026.13;4991244;28;20196;-76
2022/04/15 11:28:57;;;;;;;8.90;8.17;;;;;;;19.14;28.91;93058.44;4991139;28;20286;-75
2022/04/15 11:31:28;;;;;;;9.33;8.50;;;;;;;19.28;29.98;93059.00;4991708;28;20207;-75
2022/04/15 11:33:56;;;;;;;9.50;8.80;;;;;;;19.49;28.37;93059.00;4990965;28;20261;-74
2022/04/15 11:36:22;;;;;;;8.97;8.47;;;;;;;19.47;27.24;93030.22;4991511;28;20205;-76